createdAt,value
2023-03-22T00:00:19.671Z,87.88
2023-03-22T00:05:42.459Z,87.77
2023-03-22T00:10:47.924Z,87.64
2023-03-22T00:15:50.665Z,87.98
2023-03-22T00:20:55.899Z,88.03
2023-03-22T00:25:58.401Z,88.00
2023-03-22T00:31:01.468Z,88.05
2023-03-22T00:36:07.765Z,88.21
2023-03-22T00:41:19.125Z,88.28
2023-03-22T00:46:22.133Z,88.38
2023-03-22T00:51:24.818Z,88.36
2023-03-22T00:56:28.676Z,88.61
2023-03-22T01:01:31.963Z,88.76
2023-03-22T01:06:35.409Z,88.33
2023-03-22T01:11:37.863Z,88.73
2023-03-22T01:16:40.566Z,88.85
2023-03-22T01:21:43.466Z,88.65
2023-03-22T01:26:46.175Z,88.38
2023-03-22T01:31:48.905Z,88.51
2023-03-22T01:36:51.602Z,89.69
2023-03-22T01:41:54.069Z,92.00
2023-03-22T01:46:56.567Z,92.64
2023-03-22T01:52:06.926Z,92.68
2023-03-22T01:57:09.772Z,92.33
2023-03-22T02:02:18.981Z,92.14
2023-03-22T02:07:27.002Z,92.23
2023-03-22T02:12:45.754Z,91.95
2023-03-22T02:18:07.104Z,91.54
2023-03-22T02:23:43.448Z,91.49
2023-03-22T02:28:51.678Z,91.20
2023-03-22T02:34:05.969Z,90.77
2023-03-22T02:39:14.439Z,90.62
2023-03-22T02:44:32.815Z,90.53
2023-03-22T02:49:47.982Z,90.54
2023-03-22T02:55:04.410Z,90.60
2023-03-22T03:00:12.424Z,90.76
2023-03-22T03:05:17.282Z,90.75
2023-03-22T03:10:20.959Z,90.89
2023-03-22T03:15:23.753Z,91.43
2023-03-22T03:20:46.587Z,91.52
2023-03-22T03:26:12.377Z,91.43
2023-03-22T03:31:25.683Z,91.81
2023-03-22T03:36:30.707Z,91.67
2023-03-22T03:41:34.387Z,91.28
2023-03-22T03:46:37.175Z,91.13
2023-03-22T03:51:56.004Z,90.98
2023-03-22T03:56:58.640Z,90.87
2023-03-22T04:02:01.177Z,90.72
2023-03-22T04:07:06.560Z,90.59
2023-03-22T04:12:11.728Z,90.45
2023-03-22T04:17:14.230Z,90.49
2023-03-22T04:22:18.550Z,90.35
2023-03-22T04:27:22.398Z,90.22
2023-03-22T04:32:24.986Z,90.09
2023-03-22T04:37:28.153Z,89.92
2023-03-22T04:42:30.642Z,89.87
2023-03-22T04:47:33.130Z,89.56
2023-03-22T04:52:35.686Z,89.41
2023-03-22T04:57:38.187Z,89.47
2023-03-22T05:02:41.508Z,89.40
2023-03-22T05:07:44.297Z,89.30
2023-03-22T05:12:47.115Z,89.38
2023-03-22T05:17:49.630Z,89.42
2023-03-22T05:22:57.079Z,89.38
2023-03-22T05:28:02.216Z,89.46
2023-03-22T05:33:05.077Z,89.23
2023-03-22T05:38:08.407Z,89.24
2023-03-22T05:43:12.030Z,89.20
2023-03-22T05:48:14.565Z,89.08
2023-03-22T05:53:17.157Z,88.88
2023-03-22T05:58:20.036Z,88.79
2023-03-22T06:03:23.304Z,88.78
2023-03-22T06:08:26.732Z,88.64
2023-03-22T06:13:29.545Z,88.37
2023-03-22T06:18:33.114Z,88.21
2023-03-22T06:23:35.743Z,88.23
2023-03-22T06:28:38.593Z,88.14
2023-03-22T06:33:41.157Z,88.22
2023-03-22T06:38:43.746Z,88.29
2023-03-22T06:43:46.265Z,88.60
2023-03-22T06:48:48.764Z,88.77
2023-03-22T06:53:51.263Z,88.99
2023-03-22T06:58:58.302Z,89.21
2023-03-22T07:04:01.114Z,89.62
2023-03-22T07:09:03.671Z,89.67
2023-03-22T07:14:06.217Z,89.57
2023-03-22T07:19:08.897Z,89.62
2023-03-22T07:24:12.068Z,89.71
2023-03-22T07:29:14.529Z,89.74
2023-03-22T07:34:17.095Z,90.17
2023-03-22T07:39:19.812Z,90.33
2023-03-22T07:44:22.804Z,90.08
2023-03-22T07:49:25.307Z,90.07
2023-03-22T07:54:33.901Z,90.21
2023-03-22T07:59:39.921Z,90.53
2023-03-22T08:04:42.676Z,91.12
2023-03-22T08:09:46.086Z,91.61
2023-03-22T08:14:50.973Z,92.06
2023-03-22T08:19:56.679Z,92.98
2023-03-22T08:24:59.190Z,93.30
2023-03-22T08:30:02.368Z,94.10
2023-03-22T08:35:06.337Z,94.29
2023-03-22T08:40:09.819Z,94.34
2023-03-22T08:45:12.398Z,94.80
2023-03-22T08:50:14.944Z,95.10
2023-03-22T08:55:18.075Z,95.44
2023-03-22T09:00:20.669Z,95.30
2023-03-22T09:05:23.146Z,94.92
2023-03-22T09:10:25.672Z,94.77
2023-03-22T09:15:28.201Z,95.07
2023-03-22T09:20:30.676Z,95.51
2023-03-22T09:25:34.290Z,95.67
2023-03-22T09:30:36.784Z,95.78
2023-03-22T09:35:43.680Z,95.85
2023-03-22T09:41:02.643Z,95.97
2023-03-22T09:46:10.008Z,95.78
2023-03-22T09:51:44.373Z,95.33
2023-03-22T09:57:00.381Z,94.85
2023-03-22T10:02:17.456Z,94.11
2023-03-22T10:07:59.138Z,93.58
2023-03-22T10:13:14.606Z,92.99
2023-03-22T10:18:24.849Z,92.49
2023-03-22T10:23:49.197Z,92.36
2023-03-22T10:29:04.474Z,92.27
2023-03-22T10:34:14.551Z,92.30
2023-03-22T10:39:32.937Z,92.60
2023-03-22T10:44:45.795Z,92.34
2023-03-22T10:49:54.650Z,92.37
2023-03-22T10:55:01.297Z,92.16
2023-03-22T11:00:11.296Z,92.32
2023-03-22T11:05:24.332Z,92.24
2023-03-22T11:10:34.867Z,92.33
2023-03-22T11:15:49.318Z,92.31
2023-03-22T11:21:04.220Z,92.80
2023-03-22T11:26:26.391Z,92.97
2023-03-22T11:31:49.484Z,92.93
2023-03-22T11:36:56.899Z,93.52
2023-03-22T11:42:03.798Z,93.49
2023-03-22T11:47:10.312Z,93.68
2023-03-22T11:52:18.569Z,94.05
2023-03-22T11:57:32.407Z,94.29
2023-03-22T12:02:43.461Z,94.08
2023-03-22T12:07:48.511Z,93.88
2023-03-22T12:12:55.812Z,93.65
2023-03-22T12:18:02.701Z,93.39
2023-03-22T12:23:14.068Z,93.44
2023-03-22T12:28:20.820Z,93.29
2023-03-22T12:33:37.813Z,93.41
2023-03-22T12:38:57.976Z,93.24
2023-03-22T12:44:05.876Z,92.94
2023-03-22T12:49:27.682Z,92.52
2023-03-22T12:54:30.784Z,92.28
2023-03-22T12:59:33.442Z,92.25
2023-03-22T13:04:35.865Z,92.61
2023-03-22T13:09:47.635Z,92.29
2023-03-22T13:14:56.157Z,92.35
2023-03-22T13:20:20.000Z,92.52
2023-03-22T13:25:28.957Z,92.74
2023-03-22T13:30:52.446Z,93.18
2023-03-22T13:36:01.080Z,93.79
2023-03-22T13:41:35.482Z,94.51
2023-03-22T13:46:38.015Z,94.79
2023-03-22T13:51:40.977Z,94.73
2023-03-22T13:57:03.569Z,94.26
2023-03-22T14:02:16.188Z,93.86
2023-03-22T14:07:44.278Z,93.57
2023-03-22T14:12:55.802Z,92.81
2023-03-22T14:18:23.727Z,91.85
